sensor_id;sensor_type;location;lat;lon;timestamp;temperature;humidity
22065;DHT22;11197;53.110;8.468;2024-03-02T00:01:04;8.30;99.90
22065;DHT22;11197;53.110;8.468;2024-03-02T00:03:30;8.30;99.90
22065;DHT22;11197;53.110;8.468;2024-03-02T00:05:56;8.20;99.90
22065;DHT22;11197;53.110;8.468;2024-03-02T00:08:25;8.30;99.90
22065;DHT22;11197;53.110;8.468;2024-03-02T00:10:52;8.20;99.90
22065;DHT22;11197;53.110;8.468;2024-03-02T00:13:21;8.20;99.90
22065;DHT22;11197;53.110;8.468;2024-03-02T00:15:54;8.20;99.90
22065;DHT22;11197;53.110;8.468;2024-03-02T00:18:34;8.20;99.90
22065;DHT22;11197;53.110;8.468;2024-03-02T00:21:01;8.20;99.90
22065;DHT22;11197;53.110;8.468;2024-03-02T00:23:30;8.20;99.90
22065;DHT22;11197;53.110;8.468;2024-03-02T00:25:57;8.10;99.90
22065;DHT22;11197;53.110;8.468;2024-03-02T00:31:12;8.10;99.90
22065;DHT22;11197;53.110;8.468;2024-03-02T00:33:43;8.10;99.90
22065;DHT22;11197;53.110;8.468;2024-03-02T00:36:10;8.10;99.90
22065;DHT22;11197;53.110;8.468;2024-03-02T00:38:47;8.10;99.90
22065;DHT22;11197;53.110;8.468;2024-03-02T00:41:23;8.00;99.90
22065;DHT22;11197;53.110;8.468;2024-03-02T00:46:23;8.00;99.90
22065;DHT22;11197;53.110;8.468;2024-03-02T00:48:57;8.00;99.90
22065;DHT22;11197;53.110;8.468;2024-03-02T00:51:28;8.00;99.90
22065;DHT22;11197;53.110;8.468;2024-03-02T00:53:59;8.00;99.90
22065;DHT22;11197;53.110;8.468;2024-03-02T00:56:25;7.90;99.90
22065;DHT22;11197;53.110;8.468;2024-03-02T00:58:52;7.90;99.90
22065;DHT22;11197;53.110;8.468;2024-03-02T01:01:18;7.90;99.90
22065;DHT22;11197;53.110;8.468;2024-03-02T01:03:45;7.90;99.90
22065;DHT22;11197;53.110;8.468;2024-03-02T01:06:11;7.90;99.90
22065;DHT22;11197;53.110;8.468;2024-03-02T01:08:38;7.90;99.90
22065;DHT22;11197;53.110;8.468;2024-03-02T01:11:04;7.80;99.90
22065;DHT22;11197;53.110;8.468;2024-03-02T01:13:30;7.80;99.90
22065;DHT22;11197;53.110;8.468;2024-03-02T01:15:57;7.80;99.90
22065;DHT22;11197;53.110;8.468;2024-03-02T01:18:24;7.80;99.90
22065;DHT22;11197;53.110;8.468;2024-03-02T01:20:50;7.70;99.90
22065;DHT22;11197;53.110;8.468;2024-03-02T01:23:22;7.70;99.90
22065;DHT22;11197;53.110;8.468;2024-03-02T01:25:48;7.70;99.90
22065;DHT22;11197;53.110;8.468;2024-03-02T01:28:14;7.70;99.90
22065;DHT22;11197;53.110;8.468;2024-03-02T01:30:40;7.70;99.90
22065;DHT22;11197;53.110;8.468;2024-03-02T01:33:06;7.60;99.90
22065;DHT22;11197;53.110;8.468;2024-03-02T01:35:32;7.70;99.90
22065;DHT22;11197;53.110;8.468;2024-03-02T01:37:58;7.60;99.90
22065;DHT22;11197;53.110;8.468;2024-03-02T01:40:24;7.60;99.90
22065;DHT22;11197;53.110;8.468;2024-03-02T01:42:54;7.60;99.90
22065;DHT22;11197;53.110;8.468;2024-03-02T01:45:21;7.50;99.90
22065;DHT22;11197;53.110;8.468;2024-03-02T01:47:47;7.50;99.90
22065;DHT22;11197;53.110;8.468;2024-03-02T01:50:13;7.50;99.90
22065;DHT22;11197;53.110;8.468;2024-03-02T01:52:39;7.50;99.90
22065;DHT22;11197;53.110;8.468;2024-03-02T01:55:05;7.40;99.90
22065;DHT22;11197;53.110;8.468;2024-03-02T01:57:37;7.40;99.90
22065;DHT22;11197;53.110;8.468;2024-03-02T02:00:03;7.40;99.90
22065;DHT22;11197;53.110;8.468;2024-03-02T02:02:37;7.40;99.90
22065;DHT22;11197;53.110;8.468;2024-03-02T02:05:03;7.40;99.90
22065;DHT22;11197;53.110;8.468;2024-03-02T02:07:29;7.30;99.90
22065;DHT22;11197;53.110;8.468;2024-03-02T02:09:55;7.30;99.90
22065;DHT22;11197;53.110;8.468;2024-03-02T02:12:21;7.30;99.90
22065;DHT22;11197;53.110;8.468;2024-03-02T02:14:47;7.30;99.90
22065;DHT22;11197;53.110;8.468;2024-03-02T02:17:14;7.20;99.90
22065;DHT22;11197;53.110;8.468;2024-03-02T02:19:43;7.20;99.90
22065;DHT22;11197;53.110;8.468;2024-03-02T02:22:10;7.20;99.90
22065;DHT22;11197;53.110;8.468;2024-03-02T02:24:35;7.20;99.90
22065;DHT22;11197;53.110;8.468;2024-03-02T02:27:01;7.10;99.90
22065;DHT22;11197;53.110;8.468;2024-03-02T02:29:27;7.10;99.90
22065;DHT22;11197;53.110;8.468;2024-03-02T02:31:53;7.10;99.90
22065;DHT22;11197;53.110;8.468;2024-03-02T02:34:18;7.10;99.90
22065;DHT22;11197;53.110;8.468;2024-03-02T02:36:44;7.10;99.90
22065;DHT22;11197;53.110;8.468;2024-03-02T02:39:14;7.00;99.90
22065;DHT22;11197;53.110;8.468;2024-03-02T02:41:40;7.10;99.90
22065;DHT22;11197;53.110;8.468;2024-03-02T02:44:06;7.00;99.90
22065;DHT22;11197;53.110;8.468;2024-03-02T02:46:32;7.00;99.90
22065;DHT22;11197;53.110;8.468;2024-03-02T02:48:58;7.00;99.90
22065;DHT22;11197;53.110;8.468;2024-03-02T02:51:23;7.00;99.90
22065;DHT22;11197;53.110;8.468;2024-03-02T02:53:51;7.00;99.90
22065;DHT22;11197;53.110;8.468;2024-03-02T02:56:17;6.90;99.90
22065;DHT22;11197;53.110;8.468;2024-03-02T02:58:42;6.90;99.90
22065;DHT22;11197;53.110;8.468;2024-03-02T03:01:08;6.90;99.90
22065;DHT22;11197;53.110;8.468;2024-03-02T03:03:34;6.90;99.90
22065;DHT22;11197;53.110;8.468;2024-03-02T03:06:00;6.90;99.90
22065;DHT22;11197;53.110;8.468;2024-03-02T03:08:25;6.90;99.90
22065;DHT22;11197;53.110;8.468;2024-03-02T03:10:51;6.80;99.90
22065;DHT22;11197;53.110;8.468;2024-03-02T03:13:17;6.80;99.90
22065;DHT22;11197;53.110;8.468;2024-03-02T03:15:43;6.80;99.90
22065;DHT22;11197;53.110;8.468;2024-03-02T03:18:09;6.80;99.90
22065;DHT22;11197;53.110;8.468;2024-03-02T03:20:36;6.70;99.90
22065;DHT22;11197;53.110;8.468;2024-03-02T03:23:02;6.70;99.90
22065;DHT22;11197;53.110;8.468;2024-03-02T03:25:30;6.70;99.90
22065;DHT22;11197;53.110;8.468;2024-03-02T03:27:55;6.70;99.90
22065;DHT22;11197;53.110;8.468;2024-03-02T03:30:21;6.70;99.90
22065;DHT22;11197;53.110;8.468;2024-03-02T03:32:47;6.70;99.90
22065;DHT22;11197;53.110;8.468;2024-03-02T03:35:14;6.70;99.90
22065;DHT22;11197;53.110;8.468;2024-03-02T03:37:41;6.70;99.90
22065;DHT22;11197;53.110;8.468;2024-03-02T03:40:07;6.60;99.90
22065;DHT22;11197;53.110;8.468;2024-03-02T03:42:38;6.60;99.90
22065;DHT22;11197;53.110;8.468;2024-03-02T03:45:05;6.60;99.90
22065;DHT22;11197;53.110;8.468;2024-03-02T03:47:32;6.60;99.90
22065;DHT22;11197;53.110;8.468;2024-03-02T03:49:59;6.60;99.90
22065;DHT22;11197;53.110;8.468;2024-03-02T03:52:25;6.60;99.90
22065;DHT22;11197;53.110;8.468;2024-03-02T03:54:51;6.60;99.90
22065;DHT22;11197;53.110;8.468;2024-03-02T03:57:17;6.60;99.90
22065;DHT22;11197;53.110;8.468;2024-03-02T03:59:43;6.60;99.90
22065;DHT22;11197;53.110;8.468;2024-03-02T04:02:09;6.60;99.90
22065;DHT22;11197;53.110;8.468;2024-03-02T04:04:35;6.60;99.90
22065;DHT22;11197;53.110;8.468;2024-03-02T04:07:01;6.60;99.90
22065;DHT22;11197;53.110;8.468;2024-03-02T04:09:27;6.60;99.90
22065;DHT22;11197;53.110;8.468;2024-03-02T04:11:52;6.60;99.90
22065;DHT22;11197;53.110;8.468;2024-03-02T04:14:18;6.60;99.90
22065;DHT22;11197;53.110;8.468;2024-03-02T04:16:44;6.60;99.90
22065;DHT22;11197;53.110;8.468;2024-03-02T04:19:10;6.60;99.90
22065;DHT22;11197;53.110;8.468;2024-03-02T04:21:36;6.60;99.90
22065;DHT22;11197;53.110;8.468;2024-03-02T04:24:01;6.60;99.90
22065;DHT22;11197;53.110;8.468;2024-03-02T04:26:27;6.60;99.90
22065;DHT22;11197;53.110;8.468;2024-03-02T04:28:53;6.60;99.90
22065;DHT22;11197;53.110;8.468;2024-03-02T04:31:19;6.60;99.90
22065;DHT22;11197;53.110;8.468;2024-03-02T04:33:45;6.60;99.90
22065;DHT22;11197;53.110;8.468;2024-03-02T04:36:11;6.60;99.90
22065;DHT22;11197;53.110;8.468;2024-03-02T04:38:37;6.60;99.90
22065;DHT22;11197;53.110;8.468;2024-03-02T04:41:05;6.60;99.90
22065;DHT22;11197;53.110;8.468;2024-03-02T04:43:34;6.60;99.90
22065;DHT22;11197;53.110;8.468;2024-03-02T04:46:00;6.60;99.90
22065;DHT22;11197;53.110;8.468;2024-03-02T04:48:26;6.60;99.90
22065;DHT22;11197;53.110;8.468;2024-03-02T04:50:52;6.60;99.90
22065;DHT22;11197;53.110;8.468;2024-03-02T04:53:18;6.50;99.90
22065;DHT22;11197;53.110;8.468;2024-03-02T04:55:44;6.50;99.90
22065;DHT22;11197;53.110;8.468;2024-03-02T04:58:09;6.50;99.90
22065;DHT22;11197;53.110;8.468;2024-03-02T05:00:35;6.50;99.90
22065;DHT22;11197;53.110;8.468;2024-03-02T05:03:02;6.50;99.90
22065;DHT22;11197;53.110;8.468;2024-03-02T05:05:28;6.40;99.90
22065;DHT22;11197;53.110;8.468;2024-03-02T05:07:54;6.50;99.90
22065;DHT22;11197;53.110;8.468;2024-03-02T05:10:20;6.40;99.90
22065;DHT22;11197;53.110;8.468;2024-03-02T05:12:46;6.40;99.90
22065;DHT22;11197;53.110;8.468;2024-03-02T05:15:13;6.50;99.90
22065;DHT22;11197;53.110;8.468;2024-03-02T05:17:40;6.40;99.90
22065;DHT22;11197;53.110;8.468;2024-03-02T05:20:07;6.40;99.90
22065;DHT22;11197;53.110;8.468;2024-03-02T05:22:36;6.40;99.90
22065;DHT22;11197;53.110;8.468;2024-03-02T05:25:03;6.40;99.90
22065;DHT22;11197;53.110;8.468;2024-03-02T05:27:29;6.40;99.90
22065;DHT22;11197;53.110;8.468;2024-03-02T05:29:56;6.40;99.90
22065;DHT22;11197;53.110;8.468;2024-03-02T05:32:21;6.30;99.90
22065;DHT22;11197;53.110;8.468;2024-03-02T05:34:47;6.40;99.90
22065;DHT22;11197;53.110;8.468;2024-03-02T05:37:13;6.30;99.90
22065;DHT22;11197;53.110;8.468;2024-03-02T05:39:39;6.30;99.90
22065;DHT22;11197;53.110;8.468;2024-03-02T05:42:04;6.30;99.90
22065;DHT22;11197;53.110;8.468;2024-03-02T05:44:31;6.30;99.90
22065;DHT22;11197;53.110;8.468;2024-03-02T05:46:57;6.30;99.90
22065;DHT22;11197;53.110;8.468;2024-03-02T05:49:23;6.30;99.90
22065;DHT22;11197;53.110;8.468;2024-03-02T05:51:49;6.30;99.90
22065;DHT22;11197;53.110;8.468;2024-03-02T05:54:14;6.30;99.90
22065;DHT22;11197;53.110;8.468;2024-03-02T05:56:40;6.20;99.90
22065;DHT22;11197;53.110;8.468;2024-03-02T05:59:06;6.20;99.90
22065;DHT22;11197;53.110;8.468;2024-03-02T06:01:45;6.20;99.90
22065;DHT22;11197;53.110;8.468;2024-03-02T06:04:16;6.20;99.90
22065;DHT22;11197;53.110;8.468;2024-03-02T06:06:42;6.20;99.90
22065;DHT22;11197;53.110;8.468;2024-03-02T06:09:08;6.20;99.90
22065;DHT22;11197;53.110;8.468;2024-03-02T06:11:37;6.20;99.90
22065;DHT22;11197;53.110;8.468;2024-03-02T06:14:04;6.20;99.90
22065;DHT22;11197;53.110;8.468;2024-03-02T06:16:30;6.20;99.90
22065;DHT22;11197;53.110;8.468;2024-03-02T06:18:56;6.20;99.90
22065;DHT22;11197;53.110;8.468;2024-03-02T06:21:29;6.20;99.90
22065;DHT22;11197;53.110;8.468;2024-03-02T06:23:55;6.20;99.90
22065;DHT22;11197;53.110;8.468;2024-03-02T06:26:22;6.20;99.90
22065;DHT22;11197;53.110;8.468;2024-03-02T06:28:47;6.20;99.90
22065;DHT22;11197;53.110;8.468;2024-03-02T06:31:13;6.10;99.90
22065;DHT22;11197;53.110;8.468;2024-03-02T06:33:39;6.20;99.90
22065;DHT22;11197;53.110;8.468;2024-03-02T06:36:05;6.20;99.90
22065;DHT22;11197;53.110;8.468;2024-03-02T06:38:34;6.20;99.90
22065;DHT22;11197;53.110;8.468;2024-03-02T06:41:00;6.20;99.90
22065;DHT22;11197;53.110;8.468;2024-03-02T06:43:25;6.20;99.90
22065;DHT22;11197;53.110;8.468;2024-03-02T06:45:51;6.20;99.90
22065;DHT22;11197;53.110;8.468;2024-03-02T06:48:18;6.20;99.90
22065;DHT22;11197;53.110;8.468;2024-03-02T06:50:48;6.20;99.90
22065;DHT22;11197;53.110;8.468;2024-03-02T06:53:14;6.20;99.90
22065;DHT22;11197;53.110;8.468;2024-03-02T06:55:44;6.20;99.90
22065;DHT22;11197;53.110;8.468;2024-03-02T06:58:15;6.20;99.90
22065;DHT22;11197;53.110;8.468;2024-03-02T07:00:42;6.20;99.90
22065;DHT22;11197;53.110;8.468;2024-03-02T07:03:07;6.20;99.90
22065;DHT22;11197;53.110;8.468;2024-03-02T07:05:33;6.20;99.90
22065;DHT22;11197;53.110;8.468;2024-03-02T07:07:59;6.20;99.90
22065;DHT22;11197;53.110;8.468;2024-03-02T07:10:27;6.30;99.90
22065;DHT22;11197;53.110;8.468;2024-03-02T07:12:52;6.30;99.90
22065;DHT22;11197;53.110;8.468;2024-03-02T07:15:18;6.30;99.90
22065;DHT22;11197;53.110;8.468;2024-03-02T07:17:55;6.30;99.90
22065;DHT22;11197;53.110;8.468;2024-03-02T07:20:21;6.20;99.90
22065;DHT22;11197;53.110;8.468;2024-03-02T07:22:47;6.30;99.90
22065;DHT22;11197;53.110;8.468;2024-03-02T07:25:13;6.30;99.90
22065;DHT22;11197;53.110;8.468;2024-03-02T07:27:39;6.30;99.90
22065;DHT22;11197;53.110;8.468;2024-03-02T07:30:05;6.30;99.90
22065;DHT22;11197;53.110;8.468;2024-03-02T07:32:31;6.30;99.90
22065;DHT22;11197;53.110;8.468;2024-03-02T07:34:57;6.30;99.90
22065;DHT22;11197;53.110;8.468;2024-03-02T07:37:23;6.30;99.90
22065;DHT22;11197;53.110;8.468;2024-03-02T07:39:49;6.30;99.90
22065;DHT22;11197;53.110;8.468;2024-03-02T07:42:15;6.30;99.90
22065;DHT22;11197;53.110;8.468;2024-03-02T07:44:41;6.30;99.90
22065;DHT22;11197;53.110;8.468;2024-03-02T07:47:07;6.30;99.90
22065;DHT22;11197;53.110;8.468;2024-03-02T07:49:33;6.30;99.90
22065;DHT22;11197;53.110;8.468;2024-03-02T07:52:00;6.30;99.90
22065;DHT22;11197;53.110;8.468;2024-03-02T07:54:25;6.30;99.90
22065;DHT22;11197;53.110;8.468;2024-03-02T07:56:52;6.30;99.90
22065;DHT22;11197;53.110;8.468;2024-03-02T07:59:18;6.30;99.90
22065;DHT22;11197;53.110;8.468;2024-03-02T08:01:43;6.40;99.90
22065;DHT22;11197;53.110;8.468;2024-03-02T08:04:09;6.30;99.90
22065;DHT22;11197;53.110;8.468;2024-03-02T08:06:35;6.40;99.90
22065;DHT22;11197;53.110;8.468;2024-03-02T08:09:01;6.40;99.90
22065;DHT22;11197;53.110;8.468;2024-03-02T08:11:27;6.40;99.90
22065;DHT22;11197;53.110;8.468;2024-03-02T08:13:53;6.40;99.90
22065;DHT22;11197;53.110;8.468;2024-03-02T08:16:21;6.40;99.90
22065;DHT22;11197;53.110;8.468;2024-03-02T08:18:49;6.40;99.90
22065;DHT22;11197;53.110;8.468;2024-03-02T08:21:15;6.40;99.90
22065;DHT22;11197;53.110;8.468;2024-03-02T08:23:41;6.50;99.90
22065;DHT22;11197;53.110;8.468;2024-03-02T08:26:09;6.50;99.90
22065;DHT22;11197;53.110;8.468;2024-03-02T08:28:34;6.50;99.90
22065;DHT22;11197;53.110;8.468;2024-03-02T08:31:03;6.50;99.90
22065;DHT22;11197;53.110;8.468;2024-03-02T08:33:29;6.60;99.90
22065;DHT22;11197;53.110;8.468;2024-03-02T08:35:55;6.60;99.90
22065;DHT22;11197;53.110;8.468;2024-03-02T08:38:21;6.60;99.90
22065;DHT22;11197;53.110;8.468;2024-03-02T08:40:47;6.70;99.90
22065;DHT22;11197;53.110;8.468;2024-03-02T08:43:13;6.70;99.90
22065;DHT22;11197;53.110;8.468;2024-03-02T08:45:40;6.80;99.90
22065;DHT22;11197;53.110;8.468;2024-03-02T08:48:07;6.80;99.90
22065;DHT22;11197;53.110;8.468;2024-03-02T08:50:34;6.90;99.90
22065;DHT22;11197;53.110;8.468;2024-03-02T08:53:00;7.00;99.90
22065;DHT22;11197;53.110;8.468;2024-03-02T08:55:26;7.10;99.90
22065;DHT22;11197;53.110;8.468;2024-03-02T08:57:52;7.10;99.90
22065;DHT22;11197;53.110;8.468;2024-03-02T09:00:18;7.20;99.90
22065;DHT22;11197;53.110;8.468;2024-03-02T09:02:45;7.30;99.90
22065;DHT22;11197;53.110;8.468;2024-03-02T09:05:11;7.40;99.90
22065;DHT22;11197;53.110;8.468;2024-03-02T09:07:36;7.40;99.90
22065;DHT22;11197;53.110;8.468;2024-03-02T09:10:07;7.60;99.90
22065;DHT22;11197;53.110;8.468;2024-03-02T09:12:34;7.70;99.90
22065;DHT22;11197;53.110;8.468;2024-03-02T09:15:03;7.80;99.90
22065;DHT22;11197;53.110;8.468;2024-03-02T09:17:29;7.80;99.90
22065;DHT22;11197;53.110;8.468;2024-03-02T09:19:55;7.90;99.90
22065;DHT22;11197;53.110;8.468;2024-03-02T09:22:21;8.00;99.90
22065;DHT22;11197;53.110;8.468;2024-03-02T09:24:47;8.10;99.90
22065;DHT22;11197;53.110;8.468;2024-03-02T09:27:13;8.40;99.90
22065;DHT22;11197;53.110;8.468;2024-03-02T09:29:38;8.40;99.90
22065;DHT22;11197;53.110;8.468;2024-03-02T09:32:05;8.60;99.90
22065;DHT22;11197;53.110;8.468;2024-03-02T09:34:32;8.70;99.90
22065;DHT22;11197;53.110;8.468;2024-03-02T09:36:58;8.70;99.90
22065;DHT22;11197;53.110;8.468;2024-03-02T09:39:24;8.90;99.90
22065;DHT22;11197;53.110;8.468;2024-03-02T09:41:51;9.00;99.90
22065;DHT22;11197;53.110;8.468;2024-03-02T09:44:17;9.00;99.90
22065;DHT22;11197;53.110;8.468;2024-03-02T09:46:43;9.00;99.90
22065;DHT22;11197;53.110;8.468;2024-03-02T09:49:12;9.00;99.90
22065;DHT22;11197;53.110;8.468;2024-03-02T09:51:38;9.10;99.90
22065;DHT22;11197;53.110;8.468;2024-03-02T09:54:05;9.20;99.90
22065;DHT22;11197;53.110;8.468;2024-03-02T09:56:32;9.30;99.90
22065;DHT22;11197;53.110;8.468;2024-03-02T09:58:59;9.50;99.90
22065;DHT22;11197;53.110;8.468;2024-03-02T10:01:25;9.50;99.90
22065;DHT22;11197;53.110;8.468;2024-03-02T10:03:51;9.50;99.90
22065;DHT22;11197;53.110;8.468;2024-03-02T10:06:27;9.60;99.90
22065;DHT22;11197;53.110;8.468;2024-03-02T10:08:54;9.70;99.90
22065;DHT22;11197;53.110;8.468;2024-03-02T10:11:28;9.80;99.90
22065;DHT22;11197;53.110;8.468;2024-03-02T10:14:13;9.80;99.90
22065;DHT22;11197;53.110;8.468;2024-03-02T10:16:41;9.90;99.90
22065;DHT22;11197;53.110;8.468;2024-03-02T10:19:16;9.90;99.90
22065;DHT22;11197;53.110;8.468;2024-03-02T10:21:44;10.00;99.90
22065;DHT22;11197;53.110;8.468;2024-03-02T10:24:10;10.00;99.90
22065;DHT22;11197;53.110;8.468;2024-03-02T10:26:35;10.00;99.90
22065;DHT22;11197;53.110;8.468;2024-03-02T10:29:01;10.00;99.90
22065;DHT22;11197;53.110;8.468;2024-03-02T10:31:28;10.10;99.90
22065;DHT22;11197;53.110;8.468;2024-03-02T10:33:55;10.10;99.90
22065;DHT22;11197;53.110;8.468;2024-03-02T10:36:21;10.20;99.90
22065;DHT22;11197;53.110;8.468;2024-03-02T10:38:47;10.30;99.90
22065;DHT22;11197;53.110;8.468;2024-03-02T10:41:23;10.40;99.90
22065;DHT22;11197;53.110;8.468;2024-03-02T10:43:52;10.40;99.90
22065;DHT22;11197;53.110;8.468;2024-03-02T10:46:20;10.40;99.90
22065;DHT22;11197;53.110;8.468;2024-03-02T10:48:46;10.40;99.90
22065;DHT22;11197;53.110;8.468;2024-03-02T10:51:12;10.50;99.90
22065;DHT22;11197;53.110;8.468;2024-03-02T10:53:38;10.40;99.90
22065;DHT22;11197;53.110;8.468;2024-03-02T10:56:07;10.50;99.90
22065;DHT22;11197;53.110;8.468;2024-03-02T10:58:36;10.50;99.90
22065;DHT22;11197;53.110;8.468;2024-03-02T11:01:03;10.60;99.90
22065;DHT22;11197;53.110;8.468;2024-03-02T11:03:35;10.70;99.90
22065;DHT22;11197;53.110;8.468;2024-03-02T11:06:05;11.00;99.90
22065;DHT22;11197;53.110;8.468;2024-03-02T11:08:34;11.40;99.90
22065;DHT22;11197;53.110;8.468;2024-03-02T11:11:06;11.80;99.90
22065;DHT22;11197;53.110;8.468;2024-03-02T11:13:33;12.10;99.90
22065;DHT22;11197;53.110;8.468;2024-03-02T11:16:04;12.10;99.90
22065;DHT22;11197;53.110;8.468;2024-03-02T11:18:32;12.00;99.90
22065;DHT22;11197;53.110;8.468;2024-03-02T11:20:59;11.80;99.90
22065;DHT22;11197;53.110;8.468;2024-03-02T11:23:32;11.70;99.90
22065;DHT22;11197;53.110;8.468;2024-03-02T11:26:20;11.60;99.90
22065;DHT22;11197;53.110;8.468;2024-03-02T11:28:46;11.50;99.90
22065;DHT22;11197;53.110;8.468;2024-03-02T11:31:12;11.50;99.90
22065;DHT22;11197;53.110;8.468;2024-03-02T11:33:38;11.40;99.90
22065;DHT22;11197;53.110;8.468;2024-03-02T11:36:05;11.40;99.90
22065;DHT22;11197;53.110;8.468;2024-03-02T11:38:33;11.50;99.90
22065;DHT22;11197;53.110;8.468;2024-03-02T11:41:00;11.40;99.90
22065;DHT22;11197;53.110;8.468;2024-03-02T11:43:28;11.40;99.90
22065;DHT22;11197;53.110;8.468;2024-03-02T11:46:01;11.40;99.90
22065;DHT22;11197;53.110;8.468;2024-03-02T11:48:30;11.40;99.90
22065;DHT22;11197;53.110;8.468;2024-03-02T11:50:58;11.60;99.90
22065;DHT22;11197;53.110;8.468;2024-03-02T11:53:27;11.90;99.90
22065;DHT22;11197;53.110;8.468;2024-03-02T11:55:55;11.90;99.90
22065;DHT22;11197;53.110;8.468;2024-03-02T11:58:21;11.90;99.90
22065;DHT22;11197;53.110;8.468;2024-03-02T12:00:58;11.90;99.90
22065;DHT22;11197;53.110;8.468;2024-03-02T12:03:24;11.90;99.90
22065;DHT22;11197;53.110;8.468;2024-03-02T12:05:53;11.90;99.90
22065;DHT22;11197;53.110;8.468;2024-03-02T12:08:22;11.80;99.90
22065;DHT22;11197;53.110;8.468;2024-03-02T12:10:57;11.80;99.90
22065;DHT22;11197;53.110;8.468;2024-03-02T12:13:24;11.80;99.90
22065;DHT22;11197;53.110;8.468;2024-03-02T12:15:54;11.80;99.90
22065;DHT22;11197;53.110;8.468;2024-03-02T12:18:23;11.70;99.90
22065;DHT22;11197;53.110;8.468;2024-03-02T12:20:50;11.80;99.90
22065;DHT22;11197;53.110;8.468;2024-03-02T12:23:22;11.90;99.90
22065;DHT22;11197;53.110;8.468;2024-03-02T12:25:48;11.80;99.90
22065;DHT22;11197;53.110;8.468;2024-03-02T12:28:14;11.80;99.90
22065;DHT22;11197;53.110;8.468;2024-03-02T12:30:40;11.80;99.90
22065;DHT22;11197;53.110;8.468;2024-03-02T12:33:06;11.90;99.90
22065;DHT22;11197;53.110;8.468;2024-03-02T12:35:32;11.90;99.90
22065;DHT22;11197;53.110;8.468;2024-03-02T12:37:57;11.90;99.90
22065;DHT22;11197;53.110;8.468;2024-03-02T12:40:23;11.90;99.90
22065;DHT22;11197;53.110;8.468;2024-03-02T12:42:50;11.90;99.90
22065;DHT22;11197;53.110;8.468;2024-03-02T12:45:16;12.00;99.90
22065;DHT22;11197;53.110;8.468;2024-03-02T12:47:49;12.00;99.90
22065;DHT22;11197;53.110;8.468;2024-03-02T12:50:16;12.00;99.90
22065;DHT22;11197;53.110;8.468;2024-03-02T12:52:42;12.10;99.90
22065;DHT22;11197;53.110;8.468;2024-03-02T12:55:07;12.10;99.90
22065;DHT22;11197;53.110;8.468;2024-03-02T12:57:34;12.20;99.90
22065;DHT22;11197;53.110;8.468;2024-03-02T13:00:03;12.20;99.90
22065;DHT22;11197;53.110;8.468;2024-03-02T13:02:35;12.20;99.90
22065;DHT22;11197;53.110;8.468;2024-03-02T13:05:01;12.30;99.90
22065;DHT22;11197;53.110;8.468;2024-03-02T13:07:27;12.40;99.90
22065;DHT22;11197;53.110;8.468;2024-03-02T13:09:54;12.40;99.90
22065;DHT22;11197;53.110;8.468;2024-03-02T13:12:21;12.40;99.90
22065;DHT22;11197;53.110;8.468;2024-03-02T13:14:52;12.50;99.90
22065;DHT22;11197;53.110;8.468;2024-03-02T13:17:18;12.40;99.90
22065;DHT22;11197;53.110;8.468;2024-03-02T13:19:59;12.40;99.90
22065;DHT22;11197;53.110;8.468;2024-03-02T13:22:26;12.40;99.90
22065;DHT22;11197;53.110;8.468;2024-03-02T13:24:53;12.40;99.90
22065;DHT22;11197;53.110;8.468;2024-03-02T13:27:22;12.50;99.90
22065;DHT22;11197;53.110;8.468;2024-03-02T13:29:48;12.40;99.90
22065;DHT22;11197;53.110;8.468;2024-03-02T13:32:14;12.50;99.90
22065;DHT22;11197;53.110;8.468;2024-03-02T13:34:40;12.50;99.90
22065;DHT22;11197;53.110;8.468;2024-03-02T13:37:07;12.50;99.90
22065;DHT22;11197;53.110;8.468;2024-03-02T13:39:32;12.50;99.90
22065;DHT22;11197;53.110;8.468;2024-03-02T13:42:00;12.60;99.90
22065;DHT22;11197;53.110;8.468;2024-03-02T13:44:32;12.60;99.90
22065;DHT22;11197;53.110;8.468;2024-03-02T13:47:00;12.60;99.90
22065;DHT22;11197;53.110;8.468;2024-03-02T13:49:26;12.60;99.90
22065;DHT22;11197;53.110;8.468;2024-03-02T13:52:00;12.70;99.90
22065;DHT22;11197;53.110;8.468;2024-03-02T13:54:28;12.70;99.90
22065;DHT22;11197;53.110;8.468;2024-03-02T13:56:54;12.70;99.90
22065;DHT22;11197;53.110;8.468;2024-03-02T13:59:20;12.70;99.90
22065;DHT22;11197;53.110;8.468;2024-03-02T14:01:46;12.70;99.90
22065;DHT22;11197;53.110;8.468;2024-03-02T14:04:12;12.80;99.90
22065;DHT22;11197;53.110;8.468;2024-03-02T14:06:38;12.90;99.90
22065;DHT22;11197;53.110;8.468;2024-03-02T14:09:04;12.80;99.90
22065;DHT22;11197;53.110;8.468;2024-03-02T14:11:29;12.80;99.90
22065;DHT22;11197;53.110;8.468;2024-03-02T14:13:55;12.90;99.90
22065;DHT22;11197;53.110;8.468;2024-03-02T14:16:22;12.90;99.90
22065;DHT22;11197;53.110;8.468;2024-03-02T14:18:48;12.90;99.90
22065;DHT22;11197;53.110;8.468;2024-03-02T14:21:13;12.90;99.90
22065;DHT22;11197;53.110;8.468;2024-03-02T14:23:39;13.00;99.90
22065;DHT22;11197;53.110;8.468;2024-03-02T14:26:06;13.00;99.90
22065;DHT22;11197;53.110;8.468;2024-03-02T14:28:31;13.00;99.90
22065;DHT22;11197;53.110;8.468;2024-03-02T14:30:57;13.00;99.90
22065;DHT22;11197;53.110;8.468;2024-03-02T14:33:24;13.00;99.90
22065;DHT22;11197;53.110;8.468;2024-03-02T14:35:50;13.10;99.90
22065;DHT22;11197;53.110;8.468;2024-03-02T14:38:15;13.10;99.90
22065;DHT22;11197;53.110;8.468;2024-03-02T14:40:41;13.10;99.90
22065;DHT22;11197;53.110;8.468;2024-03-02T14:43:07;13.10;99.90
22065;DHT22;11197;53.110;8.468;2024-03-02T14:45:33;13.10;99.90
22065;DHT22;11197;53.110;8.468;2024-03-02T14:47:58;13.10;99.90
22065;DHT22;11197;53.110;8.468;2024-03-02T14:50:26;13.10;99.90
22065;DHT22;11197;53.110;8.468;2024-03-02T14:52:52;13.10;99.90
22065;DHT22;11197;53.110;8.468;2024-03-02T14:55:18;13.10;99.90
22065;DHT22;11197;53.110;8.468;2024-03-02T14:57:43;13.10;99.90
22065;DHT22;11197;53.110;8.468;2024-03-02T15:00:09;13.10;99.90
22065;DHT22;11197;53.110;8.468;2024-03-02T15:02:37;13.20;99.90
22065;DHT22;11197;53.110;8.468;2024-03-02T15:05:04;13.20;99.90
22065;DHT22;11197;53.110;8.468;2024-03-02T15:07:31;13.20;99.90
22065;DHT22;11197;53.110;8.468;2024-03-02T15:09:57;13.20;99.90
22065;DHT22;11197;53.110;8.468;2024-03-02T15:12:23;13.20;99.90
22065;DHT22;11197;53.110;8.468;2024-03-02T15:14:48;13.20;99.90
22065;DHT22;11197;53.110;8.468;2024-03-02T15:17:15;13.30;99.90
22065;DHT22;11197;53.110;8.468;2024-03-02T15:19:44;13.30;99.90
22065;DHT22;11197;53.110;8.468;2024-03-02T15:22:11;13.30;99.90
22065;DHT22;11197;53.110;8.468;2024-03-02T15:24:37;13.40;99.90
22065;DHT22;11197;53.110;8.468;2024-03-02T15:27:03;13.40;99.90
22065;DHT22;11197;53.110;8.468;2024-03-02T15:29:31;13.40;99.90
22065;DHT22;11197;53.110;8.468;2024-03-02T15:31:58;13.40;99.90
22065;DHT22;11197;53.110;8.468;2024-03-02T15:34:23;13.40;99.90
22065;DHT22;11197;53.110;8.468;2024-03-02T15:36:50;13.30;99.90
22065;DHT22;11197;53.110;8.468;2024-03-02T15:39:16;13.30;99.90
22065;DHT22;11197;53.110;8.468;2024-03-02T15:41:44;13.30;99.90
22065;DHT22;11197;53.110;8.468;2024-03-02T15:44:10;13.30;99.90